Terminal Aerodrome Forecast
Issued by NWS

Current Version | Previous Version | Text Only | Print | Product List | Glossary Off
Versions: 1 2 3 4 5 6 7 8 9 10 11 12 13 14 15 16 17 18 19 20

000
FTUS41 KRLX 020900 AAA
TAFCKB
TAF AMD
KCKB 020921Z 0209/0306 29009KT 6SM -SN BR OVC020
     FM021100 30007G14KT P6SM OVC020
     FM021700 30006KT P6SM SCT020=

USA.gov is the U.S. government's official web portal to all federal, state and local government web resources and services.